createdAt,value
2018-05-29T00:00:58.411Z,972.00
2018-05-29T00:02:51.763Z,956.00
2018-05-29T00:03:51.756Z,956.00
2018-05-29T00:05:45.287Z,956.00
2018-05-29T00:06:45.096Z,952.00
2018-05-29T00:08:38.452Z,952.00
2018-05-29T00:09:38.445Z,948.00
2018-05-29T00:11:32.014Z,940.00
2018-05-29T00:12:31.782Z,936.00
2018-05-29T00:14:25.137Z,928.00
2018-05-29T00:15:25.129Z,920.00
2018-05-29T00:17:18.659Z,920.00
2018-05-29T00:18:18.471Z,912.00
2018-05-29T00:20:11.822Z,908.00
2018-05-29T00:21:11.815Z,896.00
2018-05-29T00:23:05.351Z,840.00
2018-05-29T00:24:05.167Z,808.00
2018-05-29T00:25:58.514Z,744.00
2018-05-29T00:26:58.509Z,704.00
2018-05-29T00:28:52.039Z,624.00
2018-05-29T00:29:51.853Z,600.00
2018-05-29T00:31:45.206Z,556.00
2018-05-29T00:32:45.209Z,544.00
2018-05-29T00:34:38.761Z,528.00
2018-05-29T00:35:38.535Z,532.00
2018-05-29T00:37:31.888Z,524.00
2018-05-29T00:38:31.880Z,512.00
2018-05-29T00:40:25.468Z,492.00
2018-05-29T00:41:25.222Z,492.00
2018-05-29T00:43:18.576Z,488.00
2018-05-29T00:44:18.561Z,472.00
2018-05-29T00:46:12.102Z,444.00
2018-05-29T00:47:11.915Z,432.00
2018-05-29T00:49:05.263Z,384.00
2018-05-29T00:50:05.262Z,376.00
2018-05-29T00:51:58.788Z,376.00
2018-05-29T00:52:58.601Z,384.00
2018-05-29T00:54:51.957Z,396.00
2018-05-29T00:55:51.943Z,412.00
2018-05-29T00:57:45.501Z,412.00
2018-05-29T00:58:45.305Z,384.00
2018-05-29T01:00:38.163Z,360.00
2018-05-29T01:01:38.156Z,344.00
2018-05-29T01:03:31.705Z,324.00
2018-05-29T01:04:31.507Z,316.00
2018-05-29T01:06:24.863Z,312.00
2018-05-29T01:07:24.866Z,296.00
2018-05-29T01:09:18.436Z,272.00
2018-05-29T01:10:18.203Z,276.00
2018-05-29T01:12:11.560Z,284.00
2018-05-29T01:13:11.552Z,292.00
2018-05-29T01:16:37.162Z,296.00
2018-05-29T01:17:36.952Z,304.00
2018-05-29T01:19:30.307Z,496.00
2018-05-29T01:20:30.303Z,512.00
2018-05-29T01:22:23.404Z,536.00
2018-05-29T01:23:23.166Z,548.00
2018-05-29T01:25:16.530Z,572.00
2018-05-29T01:26:16.530Z,596.00
2018-05-29T01:28:10.111Z,608.00
2018-05-29T01:29:09.874Z,616.00
2018-05-29T01:31:03.230Z,624.00
2018-05-29T01:32:03.222Z,632.00
2018-05-29T01:33:56.793Z,632.00
2018-05-29T01:34:56.564Z,636.00
2018-05-29T01:36:49.918Z,632.00
2018-05-29T01:37:49.908Z,628.00
2018-05-29T01:39:43.496Z,644.00
2018-05-29T01:40:43.259Z,648.00
2018-05-29T01:42:36.626Z,652.00
2018-05-29T01:43:36.607Z,656.00
2018-05-29T01:47:02.270Z,672.00
2018-05-29T01:48:02.035Z,672.00
2018-05-29T01:49:55.404Z,676.00
2018-05-29T01:50:55.395Z,676.00
2018-05-29T01:52:48.947Z,664.00
2018-05-29T01:53:48.737Z,672.00
2018-05-29T01:55:42.089Z,656.00
2018-05-29T01:56:42.084Z,656.00
2018-05-29T01:58:35.613Z,652.00
2018-05-29T01:59:35.434Z,644.00
2018-05-29T02:01:28.776Z,628.00
2018-05-29T02:02:28.768Z,660.00
2018-05-29T02:04:22.359Z,648.00
2018-05-29T02:05:22.116Z,644.00
2018-05-29T02:07:15.025Z,640.00
2018-05-29T02:08:15.014Z,640.00
2018-05-29T02:10:09.190Z,636.00
2018-05-29T02:11:08.357Z,632.00
2018-05-29T02:13:01.228Z,628.00
2018-05-29T02:15:33.466Z,596.00
2018-05-29T02:16:33.279Z,616.00
2018-05-29T02:18:26.148Z,616.00
2018-05-29T02:19:26.141Z,608.00
2018-05-29T02:22:52.455Z,616.00
2018-05-29T02:23:52.443Z,612.00
2018-05-29T02:25:45.799Z,608.00
2018-05-29T02:26:45.788Z,608.00
2018-05-29T02:28:39.367Z,596.00
2018-05-29T02:29:39.132Z,596.00
2018-05-29T02:31:32.490Z,592.00
2018-05-29T02:32:32.497Z,588.00
2018-05-29T02:34:26.050Z,576.00
2018-05-29T02:35:25.829Z,580.00
2018-05-29T02:37:19.184Z,580.00
2018-05-29T02:38:19.173Z,564.00
2018-05-29T02:40:12.752Z,568.00
2018-05-29T02:41:12.521Z,564.00
2018-05-29T02:43:05.867Z,552.00
2018-05-29T02:44:05.865Z,552.00
2018-05-29T02:45:59.395Z,540.00
2018-05-29T02:46:59.211Z,552.00
2018-05-29T02:48:52.558Z,540.00
2018-05-29T02:49:52.548Z,544.00
2018-05-29T02:51:46.088Z,532.00
2018-05-29T02:52:45.896Z,528.00
2018-05-29T02:54:39.252Z,524.00
2018-05-29T02:55:39.244Z,524.00
2018-05-29T02:57:32.815Z,444.00
2018-05-29T02:58:32.583Z,444.00
2018-05-29T03:00:25.938Z,500.00
2018-05-29T03:01:25.935Z,500.00
2018-05-29T03:03:19.509Z,488.00
2018-05-29T03:04:19.269Z,488.00
2018-05-29T03:07:12.617Z,476.00
2018-05-29T03:09:06.741Z,472.00
2018-05-29T03:10:05.969Z,468.00
2018-05-29T03:11:59.313Z,460.00
2018-05-29T03:12:59.303Z,452.00
2018-05-29T03:14:52.856Z,456.00
2018-05-29T03:15:52.645Z,452.00
2018-05-29T03:17:46.000Z,448.00
2018-05-29T03:18:45.994Z,444.00
2018-05-29T03:20:39.526Z,432.00
2018-05-29T03:21:39.343Z,424.00
2018-05-29T03:23:32.695Z,432.00
2018-05-29T03:24:32.686Z,432.00
2018-05-29T03:26:26.290Z,428.00
2018-05-29T03:27:26.026Z,424.00
2018-05-29T03:29:19.972Z,420.00
2018-05-29T03:30:19.368Z,420.00
2018-05-29T03:32:12.968Z,416.00
2018-05-29T03:33:12.725Z,408.00
2018-05-29T03:35:06.083Z,396.00
2018-05-29T03:36:06.070Z,400.00
2018-05-29T03:37:59.700Z,388.00
2018-05-29T03:38:59.420Z,384.00
2018-05-29T03:40:52.773Z,368.00
2018-05-29T03:41:52.758Z,368.00
2018-05-29T03:43:46.929Z,360.00
2018-05-29T03:44:46.158Z,348.00
2018-05-29T03:46:39.515Z,348.00
2018-05-29T03:47:39.499Z,344.00
2018-05-29T03:49:33.075Z,336.00
2018-05-29T03:50:32.848Z,400.00
2018-05-29T03:52:26.215Z,388.00
2018-05-29T03:53:26.199Z,388.00
2018-05-29T03:55:19.754Z,376.00
2018-05-29T03:56:19.550Z,380.00
2018-05-29T03:58:12.900Z,380.00
2018-05-29T03:59:12.915Z,380.00
2018-05-29T04:01:06.590Z,376.00
2018-05-29T04:02:06.237Z,372.00
2018-05-29T04:03:59.110Z,372.00
2018-05-29T04:04:59.130Z,368.00
2018-05-29T04:06:52.636Z,364.00
2018-05-29T04:07:52.446Z,356.00
2018-05-29T04:09:45.806Z,352.00
2018-05-29T04:10:45.817Z,352.00
2018-05-29T04:12:39.337Z,360.00
2018-05-29T04:13:39.146Z,336.00
2018-05-29T04:15:32.591Z,356.00
2018-05-29T04:16:32.496Z,360.00
2018-05-29T04:18:26.072Z,352.00
2018-05-29T04:19:25.868Z,352.00
2018-05-29T04:21:19.195Z,352.00
2018-05-29T04:22:19.186Z,352.00
2018-05-29T04:25:44.835Z,356.00
2018-05-29T04:26:44.592Z,348.00
2018-05-29T04:28:37.953Z,340.00
2018-05-29T04:29:37.937Z,352.00
2018-05-29T04:31:31.518Z,344.00
2018-05-29T04:32:31.284Z,344.00
2018-05-29T04:34:24.637Z,348.00
2018-05-29T04:35:24.632Z,328.00
2018-05-29T04:37:18.210Z,332.00
2018-05-29T04:38:17.975Z,328.00
2018-05-29T04:40:11.346Z,320.00
2018-05-29T04:41:11.319Z,320.00
2018-05-29T04:43:04.900Z,328.00
2018-05-29T04:44:04.670Z,320.00
2018-05-29T04:45:58.046Z,312.00
2018-05-29T04:46:58.080Z,312.00
2018-05-29T04:48:51.713Z,324.00
2018-05-29T04:49:51.366Z,324.00
2018-05-29T04:51:44.811Z,332.00
2018-05-29T04:52:44.714Z,320.00
2018-05-29T04:54:38.385Z,324.00
2018-05-29T04:55:38.066Z,308.00
2018-05-29T04:57:31.408Z,324.00
2018-05-29T04:58:31.400Z,332.00
2018-05-29T05:00:24.972Z,312.00
2018-05-29T05:01:24.743Z,312.00
2018-05-29T05:03:18.093Z,268.00
2018-05-29T05:04:18.088Z,284.00
2018-05-29T05:06:11.623Z,312.00
2018-05-29T05:07:11.433Z,312.00
2018-05-29T05:09:04.785Z,308.00
2018-05-29T05:10:04.776Z,272.00
2018-05-29T05:11:58.352Z,260.00
2018-05-29T05:12:58.141Z,300.00
2018-05-29T05:14:50.993Z,308.00
2018-05-29T05:15:50.993Z,304.00
2018-05-29T05:17:44.579Z,308.00
2018-05-29T05:18:44.344Z,308.00
2018-05-29T05:20:37.777Z,304.00
2018-05-29T05:21:37.677Z,300.00
2018-05-29T05:23:31.266Z,300.00
2018-05-29T05:24:31.016Z,296.00
2018-05-29T05:26:24.374Z,296.00
2018-05-29T05:27:24.362Z,292.00
2018-05-29T05:29:17.941Z,300.00
2018-05-29T05:30:17.712Z,296.00
2018-05-29T05:32:11.073Z,292.00
2018-05-29T05:33:11.064Z,292.00
2018-05-29T05:35:04.652Z,288.00
2018-05-29T05:36:04.424Z,284.00
2018-05-29T05:37:57.776Z,280.00
2018-05-29T05:38:57.765Z,280.00
2018-05-29T05:40:51.433Z,280.00
